Time,TemperatureF,DewpointF,PressureIn,WindDirection,WindDirectionDegrees,WindSpeedMPH,WindSpeedGustMPH,Humidity,HourlyPrecipIn,Conditions,Clouds,dailyrainin,SoftwareType,DateUTC
2013-07-05 00:10:00,78.5,73.0,30.11,NNE,13,0.0,-999.0,84,-99.99,,,0.00,weatherlink.com 1.10,2013-07-05 04:10:00,
2013-07-05 00:25:00,78.3,73.0,30.11,NNE,13,0.0,-999.0,84,-99.99,,,0.00,weatherlink.com 1.10,2013-07-05 04:25:00,
2013-07-05 00:40:00,77.6,73.0,30.11,NNE,13,0.0,-999.0,85,-99.99,,,0.00,weatherlink.com 1.10,2013-07-05 04:40:00,
2013-07-05 00:56:00,76.8,73.0,30.11,NNE,13,0.0,-999.0,87,-99.99,,,0.00,weatherlink.com 1.10,2013-07-05 04:56:00,
2013-07-05 01:10:00,76.2,73.0,30.11,NNE,13,0.0,-999.0,88,-99.99,,,0.00,weatherlink.com 1.10,2013-07-05 05:10:00,
2013-07-05 01:25:00,75.8,72.0,30.11,NNE,13,0.0,-999.0,89,-99.99,,,0.00,weatherlink.com 1.10,2013-07-05 05:25:00,
2013-07-05 01:40:00,75.3,72.0,30.11,NNE,13,0.0,-999.0,90,-99.99,,,0.00,weatherlink.com 1.10,2013-07-05 05:40:00,
2013-07-05 01:55:00,75.0,72.0,30.11,NNE,13,0.0,-999.0,91,-99.99,,,0.00,weatherlink.com 1.10,2013-07-05 05:55:00,
2013-07-05 02:10:00,74.7,72.0,30.11,NNE,13,0.0,-999.0,91,-99.99,,,0.00,weatherlink.com 1.10,2013-07-05 06:10:00,
2013-07-05 02:25:00,74.5,72.0,30.11,NNE,13,0.0,-999.0,92,-99.99,,,0.00,weatherlink.com 1.10,2013-07-05 06:25:00,
2013-07-05 02:40:00,74.4,72.0,30.11,NNE,13,0.0,-999.0,92,-99.99,,,0.00,weatherlink.com 1.10,2013-07-05 06:40:00,
2013-07-05 02:55:00,74.2,72.0,30.11,NNE,13,0.0,-999.0,92,-99.99,,,0.00,weatherlink.com 1.10,2013-07-05 06:55:00,
2013-07-05 03:10:00,74.0,72.0,30.11,NNE,13,0.0,-999.0,93,-99.99,,,0.00,weatherlink.com 1.10,2013-07-05 07:10:00,
2013-07-05 03:26:00,73.9,72.0,30.11,NNE,13,0.0,-999.0,93,-99.99,,,0.00,weatherlink.com 1.10,2013-07-05 07:26:00,
2013-07-05 03:40:00,73.8,72.0,30.11,NNE,13,0.0,-999.0,93,-99.99,,,0.00,weatherlink.com 1.10,2013-07-05 07:40:00,
2013-07-05 03:56:00,73.7,72.0,30.11,NNE,13,0.0,-999.0,93,-99.99,,,0.00,weatherlink.com 1.10,2013-07-05 07:56:00,
2013-07-05 04:11:00,73.6,72.0,30.11,NNE,13,0.0,-999.0,94,-99.99,,,0.00,weatherlink.com 1.10,2013-07-05 08:11:00,
2013-07-05 04:26:00,73.5,72.0,30.11,NNE,13,0.0,-999.0,94,-99.99,,,0.00,weatherlink.com 1.10,2013-07-05 08:26:00,
2013-07-05 04:41:00,73.5,72.0,30.12,NNE,13,0.0,-999.0,94,-99.99,,,0.00,weatherlink.com 1.10,2013-07-05 08:41:00,
2013-07-05 04:56:00,73.3,72.0,30.12,NNE,13,0.0,-999.0,94,-99.99,,,0.00,weatherlink.com 1.10,2013-07-05 08:56:00,
2013-07-05 05:11:00,73.2,71.0,30.12,NNE,13,0.0,-999.0,94,-99.99,,,0.00,weatherlink.com 1.10,2013-07-05 09:11:00,
2013-07-05 05:26:00,73.1,71.0,30.12,NNE,13,0.0,-999.0,94,-99.99,,,0.00,weatherlink.com 1.10,2013-07-05 09:26:00,
2013-07-05 05:41:00,72.9,71.0,30.12,NNE,13,0.0,-999.0,94,-99.99,,,0.00,weatherlink.com 1.10,2013-07-05 09:41:00,
2013-07-05 05:56:00,73.0,71.0,30.13,NNE,13,0.0,-999.0,94,-99.99,,,0.00,weatherlink.com 1.10,2013-07-05 09:56:00,
2013-07-05 06:11:00,73.1,71.0,30.13,NNE,13,0.0,-999.0,94,-99.99,,,0.00,weatherlink.com 1.10,2013-07-05 10:11:00,
2013-07-05 06:26:00,73.4,72.0,30.13,North,5,0.0,-999.0,94,-99.99,,,0.00,weatherlink.com 1.10,2013-07-05 10:26:00,
2013-07-05 06:56:00,74.7,73.0,30.13,North,350,3.0,-999.0,94,-99.99,,,0.00,weatherlink.com 1.10,2013-07-05 10:56:00,
2013-07-05 07:26:00,75.5,73.0,30.13,NW,314,0.0,-999.0,92,-99.99,,,0.00,weatherlink.com 1.10,2013-07-05 11:26:00,
2013-07-05 07:41:00,76.0,73.0,30.13,North,5,1.0,-999.0,91,-99.99,,,0.00,weatherlink.com 1.10,2013-07-05 11:41:00,
2013-07-05 07:56:00,76.8,74.0,30.13,WSW,256,0.0,-999.0,90,-99.99,,,0.00,weatherlink.com 1.10,2013-07-05 11:56:00,
2013-07-05 08:11:00,77.6,74.0,30.13,North,349,4.0,-999.0,88,-99.99,,,0.00,weatherlink.com 1.10,2013-07-05 12:11:00,
2013-07-05 08:41:00,78.9,74.0,30.13,ENE,63,0.0,-999.0,85,-99.99,,,0.00,weatherlink.com 1.10,2013-07-05 12:41:00,
2013-07-05 09:26:00,80.8,75.0,30.12,North,355,0.0,-999.0,82,-99.99,,,0.00,weatherlink.com 1.10,2013-07-05 13:26:00,
2013-07-05 09:41:00,81.3,75.0,30.12,NNE,33,1.0,-999.0,80,-99.99,,,0.00,weatherlink.com 1.10,2013-07-05 13:41:00,
2013-07-05 09:57:00,82.8,76.0,30.12,WSW,254,0.0,-999.0,79,-99.99,,,0.00,weatherlink.com 1.10,2013-07-05 13:57:00,
2013-07-05 10:27:00,83.4,74.0,30.12,North,360,6.0,-999.0,74,-99.99,,,0.00,weatherlink.com 1.10,2013-07-05 14:27:00,
2013-07-05 10:42:00,84.2,74.0,30.11,WSW,238,2.0,-999.0,72,-99.99,,,0.00,weatherlink.com 1.10,2013-07-05 14:42:00,
2013-07-05 10:57:00,84.8,75.0,30.11,NNE,15,0.0,-999.0,72,-99.99,,,0.00,weatherlink.com 1.10,2013-07-05 14:57:00,
2013-07-05 11:12:00,84.1,74.0,30.11,NNE,15,2.0,-999.0,72,-99.99,,,0.00,weatherlink.com 1.10,2013-07-05 15:12:00,
2013-07-05 11:27:00,85.1,75.0,30.10,NE,42,0.0,-999.0,71,-99.99,,,0.00,weatherlink.com 1.10,2013-07-05 15:27:00,
2013-07-05 11:42:00,85.3,75.0,30.10,ENE,69,3.0,-999.0,71,-99.99,,,0.00,weatherlink.com 1.10,2013-07-05 15:42:00,
2013-07-05 11:57:00,86.0,76.0,30.10,NNE,22,0.0,-999.0,71,-99.99,,,0.00,weatherlink.com 1.10,2013-07-05 15:57:00,
2013-07-05 12:12:00,86.6,76.0,30.09,NNE,16,0.0,-999.0,70,-99.99,,,0.00,weatherlink.com 1.10,2013-07-05 16:12:00,
2013-07-05 12:27:00,86.1,75.0,30.09,NNE,13,7.0,-999.0,70,-99.99,,,0.00,weatherlink.com 1.10,2013-07-05 16:27:00,
2013-07-05 12:42:00,86.2,75.0,30.09,North,5,3.0,-999.0,70,-99.99,,,0.00,weatherlink.com 1.10,2013-07-05 16:42:00,
2013-07-05 12:58:00,86.6,75.0,30.09,NNW,348,0.0,-999.0,68,-99.99,,,0.00,weatherlink.com 1.10,2013-07-05 16:58:00,
2013-07-05 13:12:00,87.5,75.0,30.08,NNE,13,0.0,-999.0,66,-99.99,,,0.00,weatherlink.com 1.10,2013-07-05 17:12:00,
2013-07-05 13:27:00,87.4,75.0,30.08,NE,39,0.0,-999.0,66,-99.99,,,0.00,weatherlink.com 1.10,2013-07-05 17:27:00,
2013-07-05 13:42:00,88.4,76.0,30.07,NNE,28,1.0,-999.0,66,-99.99,,,0.00,weatherlink.com 1.10,2013-07-05 17:42:00,
2013-07-05 13:57:00,88.7,74.0,30.07,North,355,2.0,-999.0,63,-99.99,,,0.00,weatherlink.com 1.10,2013-07-05 17:57:00,
2013-07-05 14:12:00,87.8,75.0,30.06,North,355,6.0,-999.0,65,-99.99,,,0.00,weatherlink.com 1.10,2013-07-05 18:12:00,
2013-07-05 14:27:00,88.3,75.0,30.06,NNE,33,6.0,-999.0,64,-99.99,,,0.00,weatherlink.com 1.10,2013-07-05 18:27:00,
2013-07-05 14:42:00,86.2,74.0,30.05,NNE,33,5.0,-999.0,67,-99.99,,,0.00,weatherlink.com 1.10,2013-07-05 18:42:00,
2013-07-05 14:57:00,85.7,75.0,30.05,North,11,0.0,-999.0,71,-99.99,,,0.01,weatherlink.com 1.10,2013-07-05 18:57:00,
2013-07-05 15:12:00,83.6,79.0,30.04,NNE,26,0.0,-999.0,86,-99.99,,,0.05,weatherlink.com 1.10,2013-07-05 19:12:00,
2013-07-05 15:27:00,82.4,78.0,30.04,NW,306,0.0,-999.0,86,-99.99,,,0.05,weatherlink.com 1.10,2013-07-05 19:27:00,
2013-07-05 15:43:00,84.4,77.0,30.03,ENE,63,0.0,-999.0,77,-99.99,,,0.05,weatherlink.com 1.10,2013-07-05 19:43:00,
2013-07-05 15:57:00,86.2,79.0,30.03,ENE,57,0.0,-999.0,78,-99.99,,,0.05,weatherlink.com 1.10,2013-07-05 19:57:00,
2013-07-05 16:13:00,88.3,78.0,30.02,North,9,4.0,-999.0,72,-99.99,,,0.05,weatherlink.com 1.10,2013-07-05 20:13:00,
2013-07-05 16:29:00,89.2,77.0,30.01,NNE,12,3.0,-999.0,68,-99.99,,,0.05,weatherlink.com 1.10,2013-07-05 20:29:00,
2013-07-05 16:43:00,89.1,77.0,30.01,NW,315,0.0,-999.0,67,-99.99,,,0.05,weatherlink.com 1.10,2013-07-05 20:43:00,
2013-07-05 16:58:00,89.3,76.0,30.01,North,360,4.0,-999.0,65,-99.99,,,0.05,weatherlink.com 1.10,2013-07-05 20:58:00,
2013-07-05 17:14:00,89.3,76.0,30.01,North,355,6.0,-999.0,65,-99.99,,,0.05,weatherlink.com 1.10,2013-07-05 21:14:00,
2013-07-05 17:28:00,89.7,75.0,30.00,NNE,16,3.0,-999.0,63,-99.99,,,0.05,weatherlink.com 1.10,2013-07-05 21:28:00,
2013-07-05 17:43:00,88.3,76.0,29.99,NW,317,0.0,-999.0,68,-99.99,,,0.05,weatherlink.com 1.10,2013-07-05 21:43:00,
2013-07-05 17:58:00,88.8,76.0,29.99,North,350,2.0,-999.0,66,-99.99,,,0.05,weatherlink.com 1.10,2013-07-05 21:58:00,
2013-07-05 18:13:00,88.5,76.0,30.00,North,355,3.0,-999.0,66,-99.99,,,0.05,weatherlink.com 1.10,2013-07-05 22:13:00,
2013-07-05 18:28:00,87.6,75.0,29.99,North,360,5.0,-999.0,67,-99.99,,,0.05,weatherlink.com 1.10,2013-07-05 22:28:00,
2013-07-05 18:43:00,87.0,75.0,29.99,NNE,16,6.0,-999.0,68,-99.99,,,0.05,weatherlink.com 1.10,2013-07-05 22:43:00,
2013-07-05 18:58:00,86.7,75.0,29.99,NNE,30,4.0,-999.0,68,-99.99,,,0.05,weatherlink.com 1.10,2013-07-05 22:58:00,
2013-07-05 19:13:00,86.4,75.0,30.00,North,11,4.0,-999.0,68,-99.99,,,0.05,weatherlink.com 1.10,2013-07-05 23:13:00,
2013-07-05 19:28:00,86.1,75.0,30.00,NNW,344,5.0,-999.0,69,-99.99,,,0.05,weatherlink.com 1.10,2013-07-05 23:28:00,
2013-07-05 19:43:00,85.5,75.0,29.99,North,360,8.0,-999.0,71,-99.99,,,0.05,weatherlink.com 1.10,2013-07-05 23:43:00,
2013-07-05 19:58:00,85.4,75.0,30.00,NNW,343,0.0,-999.0,71,-99.99,,,0.05,weatherlink.com 1.10,2013-07-05 23:58:00,
2013-07-05 20:14:00,85.1,75.0,30.01,South,173,0.0,-999.0,71,-99.99,,,0.05,weatherlink.com 1.10,2013-07-06 00:14:00,
2013-07-05 20:28:00,84.3,74.0,30.02,SE,132,1.0,-999.0,71,-99.99,,,0.05,weatherlink.com 1.10,2013-07-06 00:28:00,
2013-07-05 20:43:00,83.3,73.0,30.02,SE,146,0.0,-999.0,70,-99.99,,,0.05,weatherlink.com 1.10,2013-07-06 00:43:00,
2013-07-05 20:58:00,82.4,72.0,30.03,SE,146,0.0,-999.0,71,-99.99,,,0.05,weatherlink.com 1.10,2013-07-06 00:58:00,
2013-07-05 21:13:00,81.3,72.0,30.03,SE,127,0.0,-999.0,74,-99.99,,,0.05,weatherlink.com 1.10,2013-07-06 01:13:00,
2013-07-05 21:28:00,80.4,72.0,30.03,SE,127,0.0,-999.0,75,-99.99,,,0.05,weatherlink.com 1.10,2013-07-06 01:28:00,
2013-07-05 21:43:00,79.4,72.0,30.04,SE,127,0.0,-999.0,78,-99.99,,,0.05,weatherlink.com 1.10,2013-07-06 01:43:00,
2013-07-05 21:58:00,78.7,72.0,30.05,SE,127,0.0,-999.0,80,-99.99,,,0.05,weatherlink.com 1.10,2013-07-06 01:58:00,
2013-07-05 22:13:00,78.0,72.0,30.05,SE,127,0.0,-999.0,82,-99.99,,,0.05,weatherlink.com 1.10,2013-07-06 02:13:00,
2013-07-05 22:28:00,77.5,72.0,30.05,SE,127,0.0,-999.0,83,-99.99,,,0.05,weatherlink.com 1.10,2013-07-06 02:28:00,
2013-07-05 22:44:00,77.0,72.0,30.05,SE,127,0.0,-999.0,84,-99.99,,,0.05,weatherlink.com 1.10,2013-07-06 02:44:00,
2013-07-05 22:58:00,76.4,72.0,30.05,SE,127,0.0,-999.0,85,-99.99,,,0.05,weatherlink.com 1.10,2013-07-06 02:58:00,
2013-07-05 23:15:00,76.0,72.0,30.05,SE,127,0.0,-999.0,87,-99.99,,,0.05,weatherlink.com 1.10,2013-07-06 03:15:00,
2013-07-05 23:28:00,75.7,72.0,30.05,SE,127,0.0,-999.0,87,-99.99,,,0.05,weatherlink.com 1.10,2013-07-06 03:28:00,
2013-07-05 23:43:00,75.5,71.0,30.05,SE,127,0.0,-999.0,87,-99.99,,,0.05,weatherlink.com 1.10,2013-07-06 03:43:00,
2013-07-05 23:59:00,75.6,72.0,30.05,SE,127,0.0,-999.0,88,-99.99,,,0.05,weatherlink.com 1.10,2013-07-06 03:59:00,